Time;durP1;ratioP1;P1;durP2;ratioP2;P2;SDS_P1;SDS_P2;PMS_P1;PMS_P2;Temp;Humidity;BMP_temperature;BMP_pressure;BME280_temperature;BME280_humidity;BME280_pressure;Samples;Min_cycle;Max_cycle;Signal;HPM_P1;HPM_P2
2023/09/15 00:01:11;;;;;;;10.80;8.23;;;;;;;21.88;55.61;94790.00;4188856;28;20131;-76
2023/09/15 00:03:13;;;;;;;11.10;8.13;;;;;;;21.84;55.55;94794.16;4196156;28;20484;-75
2023/09/15 00:05:15;;;;;;;11.38;8.00;;;;;;;21.82;55.77;94790.91;4194169;28;20528;-74
2023/09/15 00:07:17;;;;;;;9.55;7.95;;;;;;;21.81;56.14;94790.09;4193432;28;20131;-73
2023/09/15 00:09:20;;;;;;;11.27;8.68;;;;;;;21.79;55.98;94796.69;4182375;28;20155;-74
2023/09/15 00:11:22;;;;;;;14.45;8.45;;;;;;;21.79;56.09;94794.00;4201914;28;20052;-75
2023/09/15 00:13:24;;;;;;;13.25;8.68;;;;;;;21.75;56.23;94796.34;4190098;28;20052;-75
2023/09/15 00:15:26;;;;;;;13.38;8.23;;;;;;;21.75;56.32;94801.69;4188858;28;20564;-73
2023/09/15 00:17:28;;;;;;;10.63;8.52;;;;;;;21.77;56.25;94798.75;4199827;28;20052;-74
2023/09/15 00:19:29;;;;;;;12.43;9.25;;;;;;;21.76;56.22;94800.63;4196437;28;20048;-73
2023/09/15 00:21:33;;;;;;;13.68;8.77;;;;;;;21.73;56.25;94797.63;4197547;28;20404;-74
2023/09/15 00:23:38;;;;;;;10.43;8.23;;;;;;;21.73;56.38;94801.09;4192104;28;20069;-75
2023/09/15 00:25:40;;;;;;;16.45;9.32;;;;;;;21.67;56.47;94794.78;4192776;28;20119;-73
2023/09/15 00:27:41;;;;;;;13.90;8.45;;;;;;;21.63;56.53;94788.28;4195803;28;20048;-74
2023/09/15 00:29:43;;;;;;;11.73;8.52;;;;;;;21.56;56.97;94792.09;4192519;28;20139;-76
2023/09/15 00:31:46;;;;;;;12.57;8.55;;;;;;;21.50;56.80;94798.31;4184817;28;20040;-75
2023/09/15 00:33:47;;;;;;;11.93;9.32;;;;;;;21.51;57.21;94792.78;4177780;28;20049;-74
2023/09/15 00:35:49;;;;;;;16.15;8.75;;;;;;;21.46;57.08;94793.41;4193724;28;20481;-76
2023/09/15 00:37:51;;;;;;;12.05;9.52;;;;;;;21.50;56.93;94792.97;4170358;28;20047;-72
2023/09/15 00:39:53;;;;;;;11.15;8.45;;;;;;;21.51;57.29;94794.59;4177156;28;20045;-75
2023/09/15 00:41:55;;;;;;;12.00;8.88;;;;;;;21.53;56.91;94789.84;4192195;28;20053;-74
2023/09/15 00:43:57;;;;;;;12.85;8.50;;;;;;;21.54;56.95;94786.97;4185036;28;20127;-74
2023/09/15 00:45:59;;;;;;;12.23;9.10;;;;;;;21.53;56.93;94784.53;4194540;28;20471;-75
2023/09/15 00:48:03;;;;;;;13.18;8.98;;;;;;;21.53;57.02;94792.53;4176037;28;20175;-74
2023/09/15 00:50:05;;;;;;;12.18;9.00;;;;;;;21.54;57.16;94788.84;4191917;28;20053;-74
2023/09/15 00:52:07;;;;;;;12.57;9.02;;;;;;;21.55;57.19;94793.91;4161636;28;20053;-75
2023/09/15 00:54:09;;;;;;;12.32;8.93;;;;;;;21.53;57.08;94798.69;4193370;28;20431;-74
2023/09/15 00:56:11;;;;;;;19.60;8.82;;;;;;;21.53;56.98;94797.84;4195562;28;20454;-75
2023/09/15 00:58:15;;;;;;;16.60;9.77;;;;;;;21.54;56.90;94794.16;4187628;28;20036;-75
2023/09/15 01:00:19;;;;;;;13.00;8.88;;;;;;;21.51;56.87;94806.09;4188474;28;20060;-75
2023/09/15 01:02:21;;;;;;;11.05;8.68;;;;;;;21.49;57.46;94800.16;4174408;28;20468;-76
2023/09/15 01:04:23;;;;;;;13.32;9.63;;;;;;;21.50;57.13;94803.66;4198117;28;20127;-75
2023/09/15 01:06:26;;;;;;;13.70;9.00;;;;;;;21.52;57.26;94809.56;4184752;28;20103;-75
2023/09/15 01:08:27;;;;;;;12.63;9.32;;;;;;;21.50;57.06;94814.31;4193625;28;20041;-75
2023/09/15 01:10:29;;;;;;;10.20;9.00;;;;;;;21.50;57.03;94812.44;4193633;28;20048;-74
2023/09/15 01:12:33;;;;;;;12.77;9.40;;;;;;;21.49;57.13;94813.50;4182278;28;20491;-75
2023/09/15 01:14:35;;;;;;;11.52;8.70;;;;;;;21.44;57.21;94808.00;4179101;28;20467;-75
2023/09/15 01:16:49;;;;;;;14.63;10.13;;;;;;;21.44;57.29;94819.47;4191141;28;20074;-74
2023/09/15 01:19:12;;;;;;;11.38;9.00;;;;;;;21.46;56.96;94816.59;4166498;28;20156;-73
2023/09/15 01:21:42;;;;;;;12.50;9.88;;;;;;;21.45;57.20;94813.13;4182985;28;20135;-75
2023/09/15 01:24:12;;;;;;;13.98;10.00;;;;;;;21.41;57.19;94816.44;4190214;28;20057;-74
2023/09/15 01:26:43;;;;;;;10.38;8.68;;;;;;;21.33;56.90;94825.53;4191512;28;20126;-76
2023/09/15 01:29:22;;;;;;;14.60;9.25;;;;;;;21.28;57.28;94828.06;4118965;28;20058;-73
2023/09/15 01:31:24;;;;;;;12.48;9.30;;;;;;;21.26;57.13;94822.94;4185409;28;20055;-74
2023/09/15 01:33:27;;;;;;;12.15;9.48;;;;;;;21.26;57.40;94814.94;4176182;28;20140;-75
2023/09/15 01:35:28;;;;;;;10.60;9.35;;;;;;;21.27;57.39;94816.59;4193865;28;20049;-74
2023/09/15 01:37:30;;;;;;;13.25;9.25;;;;;;;21.23;57.40;94811.91;4175139;28;20067;-74
2023/09/15 01:39:32;;;;;;;14.38;9.43;;;;;;;21.22;57.43;94813.75;4191006;28;20118;-75
2023/09/15 01:41:34;;;;;;;14.48;9.23;;;;;;;21.19;57.34;94819.56;4196831;28;20049;-77
2023/09/15 01:43:35;;;;;;;14.77;9.18;;;;;;;21.17;57.57;94816.28;4190288;28;20103;-76
2023/09/15 01:45:37;;;;;;;12.52;9.10;;;;;;;21.17;57.63;94818.16;4183371;28;20040;-75
2023/09/15 01:47:39;;;;;;;12.27;9.23;;;;;;;21.16;57.51;94827.97;4192058;28;20121;-76
2023/09/15 01:49:41;;;;;;;11.38;9.45;;;;;;;21.14;57.72;94830.03;4173558;28;20115;-76
2023/09/15 01:51:43;;;;;;;13.70;10.50;;;;;;;21.09;57.80;94829.91;4175426;28;20068;-74
2023/09/15 01:53:45;;;;;;;10.75;9.13;;;;;;;21.10;57.97;94826.22;4175503;28;20048;-75
2023/09/15 01:55:48;;;;;;;13.77;9.60;;;;;;;21.12;57.97;94829.44;4163021;28;20170;-75
2023/09/15 01:57:50;;;;;;;10.68;9.52;;;;;;;21.14;57.58;94827.38;4191254;28;20055;-75
2023/09/15 01:59:52;;;;;;;14.52;9.77;;;;;;;21.12;57.66;94825.97;4192230;28;20469;-74
2023/09/15 02:01:53;;;;;;;12.07;9.50;;;;;;;21.10;57.79;94828.88;4188775;28;20539;-75
2023/09/15 02:03:55;;;;;;;11.25;8.93;;;;;;;21.09;57.88;94831.75;4189598;28;20060;-72
2023/09/15 02:06:03;;;;;;;12.77;9.85;;;;;;;21.06;57.77;94836.50;4193310;28;20178;-74
2023/09/15 02:08:05;;;;;;;12.30;9.35;;;;;;;21.07;58.07;94837.28;4188465;28;20078;-74
2023/09/15 02:10:07;;;;;;;13.90;9.40;;;;;;;21.09;57.63;94829.91;4184427;28;20443;-74
2023/09/15 02:12:08;;;;;;;14.95;10.10;;;;;;;21.07;57.89;94835.44;4183881;28;20053;-75
2023/09/15 02:14:10;;;;;;;13.00;9.80;;;;;;;21.04;58.03;94845.75;4189534;28;20072;-72
2023/09/15 02:16:12;;;;;;;12.27;9.80;;;;;;;21.05;58.03;94839.38;4173768;28;20052;-74
2023/09/15 02:18:14;;;;;;;10.95;9.85;;;;;;;21.02;58.16;94843.28;4166935;28;20223;-74
2023/09/15 02:20:18;;;;;;;11.57;10.38;;;;;;;21.00;58.13;94845.34;4175031;28;20045;-74
2023/09/15 02:22:20;;;;;;;11.70;9.98;;;;;;;20.93;58.60;94846.44;4194294;28;20048;-74
2023/09/15 02:24:23;;;;;;;13.20;10.27;;;;;;;20.93;58.47;94849.09;4196808;28;20048;-74
2023/09/15 02:26:25;;;;;;;13.25;9.77;;;;;;;20.95;58.50;94849.69;4184397;28;20194;-76
2023/09/15 02:28:26;;;;;;;12.45;10.07;;;;;;;20.86;58.68;94852.66;4161165;28;20134;-76
2023/09/15 02:30:28;;;;;;;12.55;10.20;;;;;;;20.87;58.91;94850.81;4185931;28;20127;-75
2023/09/15 02:32:30;;;;;;;14.52;10.05;;;;;;;20.87;58.88;94848.16;4188165;28;20063;-74
2023/09/15 02:34:32;;;;;;;13.85;9.82;;;;;;;20.90;58.80;94858.34;4204358;28;20144;-76
2023/09/15 02:36:34;;;;;;;13.30;10.23;;;;;;;20.90;58.83;94862.88;4192878;28;20048;-76
2023/09/15 02:38:35;;;;;;;14.95;10.23;;;;;;;20.91;58.71;94864.47;4192661;28;20049;-75
2023/09/15 02:40:37;;;;;;;10.55;9.45;;;;;;;20.97;58.82;94853.78;4193775;28;20472;-77
2023/09/15 02:42:39;;;;;;;13.05;10.93;;;;;;;20.98;58.75;94857.28;4175610;28;20055;-76
2023/09/15 02:44:42;;;;;;;13.30;10.20;;;;;;;20.92;58.95;94856.28;4161986;28;20501;-76
2023/09/15 02:46:44;;;;;;;12.88;10.35;;;;;;;20.90;59.17;94858.34;4187072;28;20139;-75
2023/09/15 02:48:46;;;;;;;11.63;10.48;;;;;;;20.88;59.31;94857.75;4180675;28;20087;-75
2023/09/15 02:50:49;;;;;;;13.68;10.65;;;;;;;20.88;59.47;94855.09;4182824;28;20059;-76
2023/09/15 02:52:51;;;;;;;14.55;10.90;;;;;;;20.80;59.73;94863.34;4182462;28;20044;-75
2023/09/15 02:54:53;;;;;;;13.55;10.40;;;;;;;20.82;59.76;94862.13;4169040;28;20065;-76
2023/09/15 02:56:54;;;;;;;12.90;10.40;;;;;;;20.76;59.82;94868.31;4187245;28;20053;-74
2023/09/15 02:58:56;;;;;;;16.27;11.02;;;;;;;20.75;59.83;94864.00;4193548;28;20357;-75
2023/09/15 03:00:58;;;;;;;14.07;10.77;;;;;;;20.62;60.33;94870.25;4192768;28;20049;-75
2023/09/15 03:03:00;;;;;;;14.20;11.18;;;;;;;20.65;60.17;94866.38;4192471;28;20052;-76
2023/09/15 03:05:04;;;;;;;14.48;10.38;;;;;;;20.58;60.37;94865.59;4193931;28;20056;-76
2023/09/15 03:07:06;;;;;;;15.38;11.10;;;;;;;20.64;60.27;94870.06;4179480;28;20049;-75
2023/09/15 03:09:09;;;;;;;13.75;11.00;;;;;;;20.63;60.27;94874.56;4192295;28;20093;-75
2023/09/15 03:11:13;;;;;;;13.47;12.07;;;;;;;20.66;60.11;94868.00;4192950;28;20044;-76
2023/09/15 03:13:15;;;;;;;14.90;10.63;;;;;;;20.65;59.95;94871.69;4159602;28;20069;-78
2023/09/15 03:15:17;;;;;;;13.52;11.50;;;;;;;20.68;59.86;94873.09;4190450;28;20487;-74
2023/09/15 03:17:21;;;;;;;11.60;10.45;;;;;;;20.70;59.87;94871.84;4171095;28;20051;-74
2023/09/15 03:19:24;;;;;;;13.50;11.10;;;;;;;20.71;59.58;94875.31;4177166;28;20118;-74
2023/09/15 03:21:27;;;;;;;14.23;10.80;;;;;;;20.71;59.42;94878.78;4171622;28;20151;-74
2023/09/15 03:23:29;;;;;;;14.45;10.68;;;;;;;20.73;59.45;94882.03;4170786;28;20198;-75
2023/09/15 03:25:30;;;;;;;15.13;11.10;;;;;;;20.78;59.26;94871.56;4183979;28;20045;-75
2023/09/15 03:27:32;;;;;;;12.48;10.65;;;;;;;20.79;59.19;94885.69;4182036;28;20064;-75
2023/09/15 03:29:34;;;;;;;14.93;11.15;;;;;;;20.73;59.20;94886.56;4185369;28;20062;-75
2023/09/15 03:31:36;;;;;;;12.27;10.98;;;;;;;20.66;59.32;94891.94;4170827;28;20119;-75
2023/09/15 03:33:38;;;;;;;12.10;10.40;;;;;;;20.61;59.38;94881.16;4185176;28;20120;-76
2023/09/15 03:35:39;;;;;;;14.43;10.73;;;;;;;20.62;59.37;94885.41;4189246;28;20052;-75
2023/09/15 03:37:41;;;;;;;14.27;10.38;;;;;;;20.62;59.02;94894.22;4195975;28;20040;-77
2023/09/15 03:39:43;;;;;;;16.55;10.45;;;;;;;20.63;58.93;94889.72;4186822;28;20040;-74
2023/09/15 03:41:45;;;;;;;16.90;10.32;;;;;;;20.61;59.15;94889.13;4189736;28;20048;-75
2023/09/15 03:43:46;;;;;;;10.80;9.55;;;;;;;20.61;58.71;94886.47;4162225;28;20153;-74
2023/09/15 03:45:51;;;;;;;12.30;9.43;;;;;;;20.59;59.11;94892.00;4187372;28;20041;-76
2023/09/15 03:47:53;;;;;;;13.52;9.57;;;;;;;20.60;58.81;94892.81;4186186;28;20493;-74
2023/09/15 03:49:55;;;;;;;11.13;9.20;;;;;;;20.56;58.53;94895.03;4170396;28;20132;-76
2023/09/15 03:51:57;;;;;;;11.07;9.27;;;;;;;20.50;58.67;94887.13;4188078;28;20056;-74
2023/09/15 03:53:58;;;;;;;10.48;8.98;;;;;;;20.51;58.89;94891.41;4194466;28;20533;-74
2023/09/15 03:56:00;;;;;;;13.57;8.98;;;;;;;20.46;58.90;94898.19;4191707;28;20449;-75
2023/09/15 03:58:04;;;;;;;11.70;9.50;;;;;;;20.43;58.88;94898.66;4194512;28;20410;-75
2023/09/15 04:00:11;;;;;;;12.57;8.90;;;;;;;20.45;58.80;94904.53;4179775;28;20076;-76
2023/09/15 04:02:13;;;;;;;15.55;9.10;;;;;;;20.48;58.75;94905.97;4189828;28;20407;-75
2023/09/15 04:04:14;;;;;;;10.23;8.18;;;;;;;20.44;58.75;94908.25;4188460;28;20072;-76
2023/09/15 04:06:16;;;;;;;12.60;8.40;;;;;;;20.42;58.61;94904.19;4193602;28;20052;-75
2023/09/15 04:08:19;;;;;;;10.48;7.80;;;;;;;20.29;59.13;94902.41;4161606;28;20457;-76
2023/09/15 04:10:21;;;;;;;11.98;8.40;;;;;;;20.24;59.35;94905.72;4194068;28;20089;-76
2023/09/15 04:12:23;;;;;;;10.95;8.52;;;;;;;20.26;59.18;94905.47;4195953;28;20105;-76
2023/09/15 04:14:24;;;;;;;13.80;8.13;;;;;;;20.34;59.11;94909.75;4194448;28;20474;-74
2023/09/15 04:16:26;;;;;;;9.65;8.02;;;;;;;20.38;58.95;94908.28;4178197;28;20087;-78
2023/09/15 04:18:29;;;;;;;9.98;8.30;;;;;;;20.38;58.73;94911.75;4193007;28;20495;-75
2023/09/15 04:20:30;;;;;;;11.30;8.25;;;;;;;20.40;58.93;94917.69;4191863;28;20076;-76
2023/09/15 04:22:45;;;;;;;11.13;8.13;;;;;;;20.33;59.20;94916.91;4170728;28;20051;-75
2023/09/15 04:24:47;;;;;;;10.68;8.10;;;;;;;20.31;59.15;94911.00;4187211;28;20103;-76
2023/09/15 04:26:48;;;;;;;11.38;8.18;;;;;;;20.35;59.11;94924.66;4191672;28;20041;-76
2023/09/15 04:28:50;;;;;;;13.88;8.77;;;;;;;20.34;59.19;94920.38;4195906;28;20040;-77
2023/09/15 04:30:52;;;;;;;11.85;7.93;;;;;;;20.31;59.49;94921.63;4177983;28;20496;-75
2023/09/15 04:32:54;;;;;;;9.75;7.63;;;;;;;20.33;59.61;94927.56;4192821;28;20135;-77
2023/09/15 04:34:56;;;;;;;13.45;8.10;;;;;;;20.35;59.14;94928.16;4194400;28;20048;-75
2023/09/15 04:36:57;;;;;;;12.43;7.95;;;;;;;20.38;59.16;94938.38;4195850;28;20056;-74
2023/09/15 04:38:59;;;;;;;9.30;7.45;;;;;;;20.39;59.04;94937.34;4199470;28;20049;-76
2023/09/15 04:41:01;;;;;;;12.55;8.00;;;;;;;20.43;59.15;94933.25;4195831;28;20044;-75
2023/09/15 04:43:04;;;;;;;9.77;7.88;;;;;;;20.46;59.02;94938.13;4195677;28;20052;-78
2023/09/15 04:45:06;;;;;;;10.10;8.18;;;;;;;20.47;58.82;94928.28;4194627;28;20476;-76
2023/09/15 04:47:08;;;;;;;12.15;8.13;;;;;;;20.48;58.67;94934.41;4177984;28;20063;-78
2023/09/15 04:49:09;;;;;;;11.60;7.68;;;;;;;20.52;58.64;94935.63;4193078;28;20063;-75
2023/09/15 04:51:12;;;;;;;11.15;8.23;;;;;;;20.56;58.48;94936.81;4193882;28;20041;-75
2023/09/15 04:53:14;;;;;;;12.68;8.02;;;;;;;20.49;58.56;94938.72;4186556;28;20052;-75
2023/09/15 04:55:16;;;;;;;10.15;7.93;;;;;;;20.56;58.67;94936.81;4191349;28;20052;-76
2023/09/15 04:57:20;;;;;;;11.65;8.07;;;;;;;20.52;58.61;94938.28;4185165;28;21446;-78
2023/09/15 04:59:21;;;;;;;10.15;8.32;;;;;;;20.52;58.78;94936.47;4185181;28;20044;-76
2023/09/15 05:01:24;;;;;;;13.98;7.85;;;;;;;20.57;58.60;94943.78;4193965;28;20128;-75
2023/09/15 05:03:26;;;;;;;10.13;7.70;;;;;;;20.58;58.92;94937.44;4182309;28;20048;-74
2023/09/15 05:05:29;;;;;;;10.27;7.20;;;;;;;20.57;58.57;94938.47;4191223;28;20057;-76
2023/09/15 05:07:30;;;;;;;13.80;8.05;;;;;;;20.59;58.77;94939.09;4194661;28;20049;-77
2023/09/15 05:09:32;;;;;;;10.45;7.97;;;;;;;20.60;58.76;94944.19;4173560;28;20055;-78
2023/09/15 05:11:37;;;;;;;10.68;7.43;;;;;;;20.69;58.70;94942.06;4168469;28;20162;-79
2023/09/15 05:13:39;;;;;;;8.45;7.43;;;;;;;20.72;58.68;94947.00;4194690;28;20070;-77
2023/09/15 05:15:41;;;;;;;13.45;8.32;;;;;;;20.72;58.90;94947.00;4193724;28;20055;-74
2023/09/15 05:17:44;;;;;;;11.02;8.38;;;;;;;20.75;58.75;94951.88;4195024;28;20138;-79
2023/09/15 05:19:47;;;;;;;15.57;8.70;;;;;;;20.75;59.15;94954.53;4170230;28;20045;-80
2023/09/15 05:21:49;;;;;;;10.45;8.05;;;;;;;20.80;59.41;94954.72;4178600;28;20053;-78
2023/09/15 05:23:51;;;;;;;11.93;8.32;;;;;;;20.76;59.64;94956.19;4179876;28;20080;-77
2023/09/15 05:25:53;;;;;;;10.68;8.90;;;;;;;20.75;59.96;94959.84;4193709;28;21275;-76
2023/09/15 05:27:55;;;;;;;10.57;8.80;;;;;;;20.85;59.54;94954.88;4193127;28;20051;-75
2023/09/15 05:29:58;;;;;;;11.75;9.35;;;;;;;20.94;59.32;94962.59;4193528;28;20364;-76
2023/09/15 05:31:59;;;;;;;13.65;9.43;;;;;;;20.86;59.80;94950.34;4193002;28;20132;-76
2023/09/15 05:34:02;;;;;;;14.85;8.70;;;;;;;20.93;59.64;94958.28;4172855;28;20057;-76
2023/09/15 05:36:04;;;;;;;11.13;9.32;;;;;;;20.79;60.60;94957.59;4186767;28;20049;-76
2023/09/15 05:38:07;;;;;;;12.80;10.05;;;;;;;20.63;61.31;94962.41;4176419;28;20468;-77
2023/09/15 05:40:10;;;;;;;13.05;9.60;;;;;;;20.23;63.01;94964.44;4187457;28;20139;-77
2023/09/15 05:42:11;;;;;;;17.25;10.65;;;;;;;20.17;63.53;94959.97;4180282;28;20121;-78
2023/09/15 05:44:13;;;;;;;14.82;9.98;;;;;;;20.23;63.63;94959.94;4188411;28;20692;-76
2023/09/15 05:46:15;;;;;;;17.20;10.10;;;;;;;20.37;63.17;94963.34;4194727;28;20072;-74
2023/09/15 05:48:17;;;;;;;13.20;10.98;;;;;;;20.44;63.24;94955.34;4174034;28;20186;-76
2023/09/15 05:50:19;;;;;;;12.27;10.85;;;;;;;20.45;63.22;94967.59;4190473;28;20056;-75
2023/09/15 05:52:21;;;;;;;15.25;10.68;;;;;;;20.39;63.45;94963.97;4201316;28;20057;-77
2023/09/15 05:54:25;;;;;;;15.88;10.05;;;;;;;20.53;63.21;94969.19;4194005;28;20523;-77
2023/09/15 05:56:29;;;;;;;15.77;10.38;;;;;;;20.72;62.47;94962.97;4194245;28;20113;-77
2023/09/15 05:58:31;;;;;;;14.90;10.45;;;;;;;20.84;62.13;94966.56;4168977;28;20049;-78
2023/09/15 06:00:33;;;;;;;16.08;10.73;;;;;;;20.82;62.42;94968.63;4196075;28;20144;-80
2023/09/15 06:02:34;;;;;;;15.70;10.27;;;;;;;20.75;62.58;94975.81;4196229;28;20498;-76
2023/09/15 06:04:36;;;;;;;17.90;10.02;;;;;;;20.62;63.19;94966.09;4194828;28;20052;-78
2023/09/15 06:06:38;;;;;;;12.75;10.38;;;;;;;20.65;63.07;94967.53;4198137;28;20051;-78
2023/09/15 06:08:40;;;;;;;13.23;10.73;;;;;;;20.43;63.64;94964.31;4192953;28;20653;-76
2023/09/15 06:10:42;;;;;;;16.17;11.05;;;;;;;20.29;64.05;94971.59;4193924;28;20526;-77
2023/09/15 06:12:43;;;;;;;15.05;10.15;;;;;;;20.12;64.72;94973.91;4179752;28;20059;-75
2023/09/15 06:14:45;;;;;;;11.88;10.15;;;;;;;20.27;64.44;94968.31;4177841;28;20072;-77
2023/09/15 06:16:47;;;;;;;16.73;10.55;;;;;;;20.38;64.16;94972.16;4178876;28;20507;-73
2023/09/15 06:18:48;;;;;;;13.63;9.90;;;;;;;20.26;64.23;94966.66;4180218;28;20457;-74
2023/09/15 06:20:55;;;;;;;16.75;10.18;;;;;;;20.60;63.64;94962.00;4188691;28;20096;-78
2023/09/15 06:23:00;;;;;;;12.95;10.57;;;;;;;20.91;62.50;94971.00;4184751;28;20123;-77
2023/09/15 06:25:02;;;;;;;14.68;9.82;;;;;;;20.95;62.07;94966.88;4192671;28;20048;-75
2023/09/15 06:27:04;;;;;;;12.57;9.95;;;;;;;21.17;61.47;94968.13;4175745;28;20049;-78
2023/09/15 06:29:06;;;;;;;14.35;10.07;;;;;;;21.17;61.20;94964.66;4190640;28;20083;-78
2023/09/15 06:31:08;;;;;;;17.02;10.20;;;;;;;21.33;60.78;94971.28;4183185;28;20076;-77
2023/09/15 06:33:10;;;;;;;13.85;10.02;;;;;;;21.03;61.54;94966.59;4175098;28;20060;-75
2023/09/15 06:35:13;;;;;;;14.40;9.63;;;;;;;20.95;62.29;94972.19;4187343;28;20140;-76
2023/09/15 06:37:14;;;;;;;12.20;9.73;;;;;;;20.90;61.90;94975.50;4188276;28;20049;-76
2023/09/15 06:39:16;;;;;;;10.82;9.35;;;;;;;21.03;61.56;94963.94;4191232;28;20040;-77
2023/09/15 06:41:18;;;;;;;14.88;9.27;;;;;;;21.22;61.08;94962.97;4194417;28;20460;-75
2023/09/15 06:43:21;;;;;;;14.98;9.18;;;;;;;21.54;60.01;94962.91;4198638;28;20059;-74
2023/09/15 06:45:23;;;;;;;13.07;9.57;;;;;;;21.76;59.33;94963.28;4194662;28;20040;-78
2023/09/15 06:47:25;;;;;;;13.63;9.77;;;;;;;21.80;59.65;94961.78;4194140;28;20049;-75
2023/09/15 06:49:27;;;;;;;15.80;8.32;;;;;;;22.02;59.08;94962.16;4186346;28;20283;-77
2023/09/15 06:51:29;;;;;;;16.80;9.23;;;;;;;22.23;58.14;94960.09;4192176;28;20063;-76
2023/09/15 06:53:31;;;;;;;10.95;8.80;;;;;;;22.23;57.95;94954.75;4194970;28;20052;-75
2023/09/15 06:55:33;;;;;;;14.00;8.38;;;;;;;22.20;57.05;94957.81;4191225;28;20049;-76
2023/09/15 06:57:34;;;;;;;16.77;8.18;;;;;;;22.29;57.04;94960.00;4189343;28;20052;-77
2023/09/15 06:59:36;;;;;;;9.55;8.25;;;;;;;22.37;56.61;94953.53;4187451;28;20068;-76
2023/09/15 07:01:39;;;;;;;8.52;7.70;;;;;;;22.57;56.43;94949.78;4190819;28;20123;-74
2023/09/15 07:03:41;;;;;;;13.37;8.53;;;;;;;22.79;55.93;94955.41;4179605;28;20056;-78
2023/09/15 07:05:43;;;;;;;13.68;8.82;;;;;;;22.79;55.69;94955.41;4195412;28;20446;-75
2023/09/15 07:07:45;;;;;;;10.57;7.75;;;;;;;22.77;55.71;94955.63;4189140;28;20056;-79
2023/09/15 07:09:47;;;;;;;9.80;8.02;;;;;;;22.98;55.15;94962.28;4197619;28;20079;-77
2023/09/15 07:11:48;;;;;;;10.57;7.65;;;;;;;23.03;54.89;94956.28;4199021;28;20107;-77
2023/09/15 07:13:50;;;;;;;13.18;7.70;;;;;;;23.14;53.99;94957.34;4197924;28;20062;-76
2023/09/15 07:15:52;;;;;;;12.30;7.63;;;;;;;23.25;54.03;94946.69;4204821;28;20071;-77
2023/09/15 07:17:54;;;;;;;12.38;7.95;;;;;;;23.26;53.56;94948.28;4187523;28;20519;-75
2023/09/15 07:19:56;;;;;;;12.20;7.18;;;;;;;23.41;53.47;94947.84;4196933;28;20395;-77
2023/09/15 07:21:58;;;;;;;12.07;7.43;;;;;;;23.39;53.37;94954.47;4192519;28;20048;-76
2023/09/15 07:23:59;;;;;;;13.10;8.20;;;;;;;23.01;53.34;94959.19;4185417;28;20151;-75
2023/09/15 07:26:01;;;;;;;17.52;8.27;;;;;;;22.60;54.77;94958.13;4197699;28;20052;-77
2023/09/15 07:28:03;;;;;;;13.18;8.93;;;;;;;22.56;55.25;94948.94;4190829;28;20435;-76
2023/09/15 07:30:06;;;;;;;25.10;11.95;;;;;;;22.49;54.78;94946.38;4191130;28;20499;-76
2023/09/15 07:32:08;;;;;;;20.55;10.68;;;;;;;22.51;55.14;94951.50;4194246;28;20052;-78
2023/09/15 07:34:10;;;;;;;25.90;12.15;;;;;;;22.46;55.95;94956.72;4195224;28;20056;-76
2023/09/15 07:36:12;;;;;;;12.02;8.65;;;;;;;22.26;55.97;94952.47;4194260;28;20477;-76
2023/09/15 07:38:14;;;;;;;16.85;8.93;;;;;;;22.52;55.49;94952.31;4187537;28;20041;-76
2023/09/15 07:40:18;;;;;;;13.98;8.98;;;;;;;22.81;55.42;94954.13;4195978;28;20040;-78
2023/09/15 07:42:25;;;;;;;11.93;8.18;;;;;;;23.08;54.54;94953.72;4184430;28;20072;-76
2023/09/15 07:44:27;;;;;;;12.27;8.27;;;;;;;23.39;54.20;94955.28;4187400;28;20060;-79
2023/09/15 07:46:29;;;;;;;12.48;8.15;;;;;;;23.59;52.88;94952.22;4187675;28;20068;-75
2023/09/15 07:48:31;;;;;;;17.75;11.02;;;;;;;23.53;52.77;94947.81;4174347;28;20079;-78
2023/09/15 07:50:33;;;;;;;24.83;12.10;;;;;;;23.58;52.67;94950.63;4174628;28;20041;-78
2023/09/15 07:52:35;;;;;;;11.65;8.40;;;;;;;23.46;52.96;94947.94;4193060;28;20134;-77
2023/09/15 07:54:37;;;;;;;13.70;9.70;;;;;;;23.14;53.89;94946.66;4186387;28;20128;-75
2023/09/15 07:56:39;;;;;;;12.18;8.15;;;;;;;23.14;53.78;94949.31;4196417;28;20476;-76
2023/09/15 07:58:41;;;;;;;10.90;8.60;;;;;;;23.35;53.49;94948.75;4198034;28;20379;-77
2023/09/15 08:00:42;;;;;;;12.65;8.98;;;;;;;23.61;52.61;94949.31;4197717;28;20064;-76
2023/09/15 08:02:44;;;;;;;12.00;8.10;;;;;;;23.42;52.60;94948.63;4196101;28;20060;-76
2023/09/15 08:04:46;;;;;;;13.13;8.27;;;;;;;23.39;53.14;94938.41;4195497;28;20461;-77
2023/09/15 08:06:49;;;;;;;13.85;8.13;;;;;;;23.66;52.58;94939.56;4196352;28;20143;-79
2023/09/15 08:08:51;;;;;;;13.13;7.90;;;;;;;23.99;51.92;94938.13;4186091;28;20471;-76
2023/09/15 08:10:53;;;;;;;13.00;7.95;;;;;;;24.31;51.03;94941.16;4191805;28;20052;-77
2023/09/15 08:12:55;;;;;;;12.27;8.18;;;;;;;24.55;49.78;94940.28;4182065;28;20082;-75
2023/09/15 08:14:56;;;;;;;10.10;8.93;;;;;;;24.45;49.36;94941.66;4185035;28;20057;-78
2023/09/15 08:16:58;;;;;;;17.20;8.52;;;;;;;24.07;50.70;94944.94;4178009;28;20111;-76
2023/09/15 08:19:00;;;;;;;13.95;8.60;;;;;;;23.47;52.03;94952.25;4188700;28;20057;-77
2023/09/15 08:21:02;;;;;;;15.50;8.55;;;;;;;23.41;51.94;94942.47;4188460;28;20577;-78
2023/09/15 08:23:04;;;;;;;12.82;8.55;;;;;;;23.52;52.00;94938.19;4195559;28;20064;-76
2023/09/15 08:25:06;;;;;;;10.32;8.30;;;;;;;23.79;51.78;94927.00;4195012;28;20056;-79
2023/09/15 08:27:08;;;;;;;14.27;8.27;;;;;;;24.22;50.98;94925.69;4193774;28;20117;-76
2023/09/15 08:29:11;;;;;;;9.77;8.55;;;;;;;24.62;50.12;94919.50;4182055;28;20134;-77
2023/09/15 08:31:13;;;;;;;16.98;9.23;;;;;;;24.73;49.25;94926.66;4182890;28;20494;-78
2023/09/15 08:33:15;;;;;;;11.50;8.25;;;;;;;24.62;49.54;94924.88;4166463;28;20049;-76
2023/09/15 08:35:17;;;;;;;11.52;8.23;;;;;;;24.62;49.46;94927.53;4194926;28;20057;-75
2023/09/15 08:37:19;;;;;;;11.82;8.75;;;;;;;24.56;49.90;94926.63;4195311;28;20160;-78
2023/09/15 08:39:20;;;;;;;14.25;8.20;;;;;;;24.43;49.81;94924.22;4163953;28;20418;-76
2023/09/15 08:41:51;;;;;;;14.55;8.63;;;;;;;24.25;50.30;94928.72;4196376;28;20536;-76
2023/09/15 08:43:52;;;;;;;13.88;9.50;;;;;;;24.38;50.35;94910.75;4185317;28;20059;-76
2023/09/15 08:45:55;;;;;;;11.18;7.93;;;;;;;24.69;49.56;94914.78;4193475;28;20271;-77
2023/09/15 08:47:59;;;;;;;13.55;8.68;;;;;;;24.89;49.04;94912.47;4172608;28;20087;-79
2023/09/15 08:50:03;;;;;;;10.55;8.10;;;;;;;25.07;48.73;94915.97;4168487;28;20137;-77
2023/09/15 08:52:05;;;;;;;10.32;8.40;;;;;;;25.19;48.29;94907.81;4182316;28;20175;-81
2023/09/15 08:54:07;;;;;;;22.25;10.35;;;;;;;25.32;47.86;94910.22;4175297;28;20052;-77
2023/09/15 08:56:09;;;;;;;16.67;8.73;;;;;;;25.26;47.93;94908.50;4166883;28;20069;-76
2023/09/15 08:58:11;;;;;;;12.90;9.43;;;;;;;25.30;47.54;94907.75;4180793;28;20049;-76
2023/09/15 09:00:13;;;;;;;11.18;8.05;;;;;;;25.25;47.04;94907.69;4177162;28;20132;-80
2023/09/15 09:02:15;;;;;;;17.45;9.13;;;;;;;25.01;47.80;94907.00;4169295;28;20111;-78
2023/09/15 09:04:17;;;;;;;15.93;8.13;;;;;;;25.15;47.82;94904.84;4190365;28;20539;-76
2023/09/15 09:06:22;;;;;;;13.73;8.85;;;;;;;25.29;47.33;94902.66;4186391;28;20114;-77
2023/09/15 09:08:25;;;;;;;14.23;8.27;;;;;;;25.45;47.42;94901.00;4195961;28;20068;-78
2023/09/15 09:10:27;;;;;;;10.70;7.45;;;;;;;25.69;47.26;94899.72;4170024;28;20053;-77
2023/09/15 09:12:29;;;;;;;12.00;8.13;;;;;;;25.81;46.60;94899.56;4181317;28;20140;-77
2023/09/15 09:14:31;;;;;;;12.30;7.93;;;;;;;25.90;46.42;94900.81;4182212;28;20040;-77
2023/09/15 09:16:32;;;;;;;12.30;8.07;;;;;;;25.82;45.99;94897.72;4189982;28;20087;-77
2023/09/15 09:18:34;;;;;;;13.02;8.63;;;;;;;25.33;47.22;94909.13;4182081;28;20470;-77
2023/09/15 09:20:36;;;;;;;11.85;8.23;;;;;;;25.08;47.76;94902.31;4191542;28;20040;-75
2023/09/15 09:22:38;;;;;;;13.80;8.48;;;;;;;24.80;47.96;94902.38;4184216;28;20057;-75
2023/09/15 09:24:40;;;;;;;22.42;11.52;;;;;;;24.81;48.13;94910.19;4185548;28;20048;-78
2023/09/15 09:26:53;;;;;;;12.82;8.40;;;;;;;24.76;47.83;94907.44;4188370;28;20041;-77
2023/09/15 09:28:57;;;;;;;16.08;10.27;;;;;;;24.94;47.35;94899.16;4195231;28;20393;-79
2023/09/15 09:30:58;;;;;;;15.68;8.38;;;;;;;25.19;46.59;94903.28;4169288;28;20060;-77